createdAt,value
2022-09-07T00:01:07.522Z,22.61
2022-09-07T00:03:34.663Z,22.62
2022-09-07T00:06:05.933Z,22.60
2022-09-07T00:08:32.838Z,22.59
2022-09-07T00:11:02.399Z,22.56
2022-09-07T00:13:31.299Z,22.53
2022-09-07T00:15:58.339Z,22.51
2022-09-07T00:18:25.376Z,22.50
2022-09-07T00:21:02.243Z,22.48
2022-09-07T00:23:29.859Z,22.45
2022-09-07T00:26:01.284Z,22.44
2022-09-07T00:28:28.711Z,22.29
2022-09-07T00:30:55.667Z,22.39
2022-09-07T00:33:22.720Z,22.38
2022-09-07T00:35:49.633Z,22.37
2022-09-07T00:38:16.563Z,22.34
2022-09-07T00:40:43.457Z,22.32
2022-09-07T00:43:15.888Z,22.31
2022-09-07T00:45:43.112Z,22.29
2022-09-07T00:48:17.157Z,22.27
2022-09-07T00:50:59.668Z,22.23
2022-09-07T00:53:30.763Z,22.21
2022-09-07T00:55:57.838Z,22.20
2022-09-07T00:58:24.729Z,22.17
2022-09-07T01:00:51.833Z,22.06
2022-09-07T01:03:25.816Z,22.15
2022-09-07T01:06:01.401Z,22.13
2022-09-07T01:08:28.318Z,22.10
2022-09-07T01:10:55.705Z,22.09
2022-09-07T01:13:23.126Z,22.08
2022-09-07T01:16:09.278Z,21.88
2022-09-07T01:19:18.131Z,22.03
2022-09-07T01:22:06.376Z,22.00
2022-09-07T01:24:53.031Z,21.96
2022-09-07T01:27:38.083Z,21.98
2022-09-07T01:30:10.806Z,21.97
2022-09-07T01:32:57.039Z,21.96
2022-09-07T01:35:50.780Z,21.88
2022-09-07T01:38:37.604Z,21.91
2022-09-07T01:41:13.546Z,21.90
2022-09-07T01:43:57.072Z,21.87
2022-09-07T01:46:42.920Z,21.73
2022-09-07T01:49:47.157Z,21.58
2022-09-07T01:52:17.166Z,21.81
2022-09-07T01:54:55.192Z,21.77
2022-09-07T01:57:26.954Z,21.68
2022-09-07T01:59:58.714Z,21.77
2022-09-07T02:02:29.742Z,21.74
2022-09-07T02:05:35.032Z,21.75
2022-09-07T02:08:13.684Z,21.72
2022-09-07T02:10:44.904Z,21.55
2022-09-07T02:13:31.660Z,21.70
2022-09-07T02:16:07.498Z,21.69
2022-09-07T02:18:41.038Z,21.67
2022-09-07T02:21:08.248Z,21.67
2022-09-07T02:23:46.878Z,21.66
2022-09-07T02:26:16.604Z,21.64
2022-09-07T02:28:43.585Z,21.63
2022-09-07T02:31:10.514Z,21.62
2022-09-07T02:33:37.474Z,21.61
2022-09-07T02:36:04.552Z,21.49
2022-09-07T02:38:33.092Z,21.58
2022-09-07T02:41:00.806Z,21.56
2022-09-07T02:43:27.745Z,21.54
2022-09-07T02:46:09.868Z,21.54
2022-09-07T02:48:51.945Z,21.53
2022-09-07T02:51:54.205Z,21.51
2022-09-07T02:54:48.305Z,21.48
2022-09-07T02:57:18.320Z,21.48
2022-09-07T03:00:02.506Z,21.47
2022-09-07T03:02:34.214Z,21.47
2022-09-07T03:05:01.071Z,21.44
2022-09-07T03:07:43.979Z,21.43
2022-09-07T03:10:11.326Z,21.41
2022-09-07T03:12:48.978Z,21.36
2022-09-07T03:15:21.384Z,21.36
2022-09-07T03:17:48.578Z,21.33
2022-09-07T03:20:17.103Z,21.30
2022-09-07T03:22:44.988Z,21.29
2022-09-07T03:25:11.923Z,21.29
2022-09-07T03:27:38.846Z,21.27
2022-09-07T03:30:06.886Z,21.26
2022-09-07T03:32:35.146Z,21.25
2022-09-07T03:35:02.161Z,21.23
2022-09-07T03:37:29.138Z,21.23
2022-09-07T03:39:56.132Z,21.22
2022-09-07T03:42:23.158Z,21.10
2022-09-07T03:44:50.264Z,21.21
2022-09-07T03:47:17.548Z,21.21
2022-09-07T03:49:44.776Z,21.20
2022-09-07T03:52:11.658Z,21.18
2022-09-07T03:54:39.742Z,21.14
2022-09-07T03:57:06.970Z,21.08
2022-09-07T03:59:34.043Z,21.07
2022-09-07T04:02:01.763Z,21.17
2022-09-07T04:04:29.170Z,21.28
2022-09-07T04:06:56.291Z,21.43
2022-09-07T04:09:23.523Z,21.57
2022-09-07T04:11:52.261Z,21.68
2022-09-07T04:14:19.324Z,21.81
2022-09-07T04:16:46.687Z,21.92
2022-09-07T04:19:15.300Z,21.97
2022-09-07T04:21:44.380Z,22.00
2022-09-07T04:24:11.339Z,22.10
2022-09-07T04:26:38.457Z,22.22
2022-09-07T04:29:06.969Z,22.23
2022-09-07T04:31:34.726Z,22.46
2022-09-07T04:34:01.874Z,22.47
2022-09-07T04:36:28.995Z,22.46
2022-09-07T04:39:00.171Z,22.61
2022-09-07T04:41:28.656Z,22.73
2022-09-07T04:43:59.915Z,22.76
2022-09-07T04:46:28.801Z,22.93
2022-09-07T04:48:59.444Z,22.98
2022-09-07T04:51:28.469Z,22.88
2022-09-07T04:53:56.431Z,23.02
2022-09-07T04:56:23.657Z,22.96
2022-09-07T04:58:50.851Z,22.85
2022-09-07T05:01:20.724Z,22.71
2022-09-07T05:03:48.273Z,22.56
2022-09-07T05:06:15.529Z,22.41
2022-09-07T05:08:49.924Z,22.23
2022-09-07T05:11:16.946Z,22.06
2022-09-07T05:13:43.846Z,21.90
2022-09-07T05:16:29.382Z,21.75
2022-09-07T05:19:01.225Z,21.59
2022-09-07T05:21:30.074Z,21.40
2022-09-07T05:23:57.761Z,21.34
2022-09-07T05:26:27.357Z,21.31
2022-09-07T05:31:41.830Z,21.22
2022-09-07T05:36:56.688Z,20.79
2022-09-07T05:39:23.834Z,20.85
2022-09-07T05:41:50.897Z,20.84
2022-09-07T05:47:04.896Z,20.91
2022-09-07T05:49:32.542Z,20.88
2022-09-07T05:51:59.779Z,20.87
2022-09-07T05:54:26.964Z,20.80
2022-09-07T05:56:53.983Z,20.74
2022-09-07T05:59:20.979Z,20.64
2022-09-07T06:01:48.051Z,20.57
2022-09-07T06:04:15.267Z,20.44
2022-09-07T06:06:47.814Z,20.33
2022-09-07T06:09:30.341Z,20.15
2022-09-07T06:11:57.941Z,19.98
2022-09-07T06:14:25.138Z,19.88
2022-09-07T06:16:52.218Z,19.80
2022-09-07T06:19:19.271Z,19.74
2022-09-07T06:21:46.294Z,19.72
2022-09-07T06:24:13.405Z,19.74
2022-09-07T06:26:40.495Z,19.80
2022-09-07T06:29:08.727Z,19.83
2022-09-07T06:31:35.922Z,19.83
2022-09-07T06:34:02.921Z,19.76
2022-09-07T06:36:29.958Z,19.75
2022-09-07T06:39:01.931Z,19.81
2022-09-07T06:44:20.930Z,19.94
2022-09-07T06:47:03.856Z,19.98
2022-09-07T06:49:31.412Z,20.04
2022-09-07T06:51:58.436Z,20.05
2022-09-07T06:57:12.594Z,20.02
2022-09-07T06:59:39.624Z,20.18
2022-09-07T07:02:06.704Z,20.29
2022-09-07T07:04:39.616Z,20.46
2022-09-07T07:07:10.894Z,20.54
2022-09-07T07:09:38.531Z,20.62
2022-09-07T07:12:05.507Z,20.70
2022-09-07T07:14:34.651Z,20.49
2022-09-07T07:17:02.665Z,20.86
2022-09-07T07:19:29.705Z,20.92
2022-09-07T07:24:43.951Z,21.10
2022-09-07T07:27:10.935Z,21.18
2022-09-07T07:29:37.919Z,21.24
2022-09-07T07:32:05.378Z,21.32
2022-09-07T07:34:32.438Z,21.07
2022-09-07T07:36:59.395Z,21.41
2022-09-07T07:42:13.369Z,21.57
2022-09-07T07:44:40.300Z,21.66
2022-09-07T07:47:07.238Z,21.72
2022-09-07T07:49:34.150Z,21.80
2022-09-07T07:54:48.280Z,21.98
2022-09-07T07:57:16.994Z,22.08
2022-09-07T07:59:43.987Z,22.16
2022-09-07T08:02:15.122Z,22.22
2022-09-07T08:04:42.290Z,22.28
2022-09-07T08:07:11.008Z,22.29
2022-09-07T08:09:44.665Z,22.35
2022-09-07T08:12:13.209Z,22.30
2022-09-07T08:14:43.156Z,22.39
2022-09-07T08:17:11.047Z,22.27
2022-09-07T08:19:38.256Z,22.46
2022-09-07T08:22:05.313Z,22.46
2022-09-07T08:24:32.424Z,22.64
2022-09-07T08:26:59.474Z,22.69
2022-09-07T08:29:27.254Z,22.77
2022-09-07T08:31:54.571Z,22.85
2022-09-07T08:34:22.099Z,22.93
2022-09-07T08:36:49.044Z,23.03
2022-09-07T08:39:16.204Z,23.10
2022-09-07T08:42:07.806Z,23.22
2022-09-07T08:44:45.816Z,23.31
2022-09-07T08:47:36.543Z,23.42
2022-09-07T08:50:20.513Z,23.50
2022-09-07T08:52:54.779Z,23.57
2022-09-07T08:55:21.798Z,23.64
2022-09-07T08:57:58.060Z,23.73
2022-09-07T09:00:25.756Z,23.82
2022-09-07T09:05:55.724Z,24.02
2022-09-07T09:08:41.230Z,24.14
2022-09-07T09:11:20.608Z,24.23
2022-09-07T09:14:15.909Z,24.20
2022-09-07T09:17:12.140Z,24.44
2022-09-07T09:20:00.540Z,24.56
2022-09-07T09:22:28.657Z,24.63
2022-09-07T09:25:20.198Z,24.72
2022-09-07T09:27:50.822Z,24.78
2022-09-07T09:30:19.728Z,24.83
2022-09-07T09:32:48.549Z,24.77
2022-09-07T09:35:37.139Z,25.00
2022-09-07T09:38:04.190Z,25.10
2022-09-07T09:40:34.466Z,25.03
2022-09-07T09:43:34.138Z,25.31
2022-09-07T09:46:17.209Z,25.38
2022-09-07T09:48:50.158Z,25.49
2022-09-07T09:54:18.516Z,25.63
2022-09-07T09:56:46.354Z,25.45
2022-09-07T10:05:28.306Z,26.05
2022-09-07T10:07:55.391Z,26.13
2022-09-07T10:10:22.358Z,26.10
2022-09-07T10:12:52.589Z,26.33
2022-09-07T10:15:41.390Z,26.41
2022-09-07T10:18:18.921Z,26.48
2022-09-07T10:20:45.909Z,26.54
2022-09-07T10:23:20.936Z,26.65
2022-09-07T10:25:48.042Z,26.72
2022-09-07T10:28:20.550Z,26.83
2022-09-07T10:31:15.760Z,26.94
2022-09-07T10:37:06.974Z,26.92
2022-09-07T10:39:37.856Z,27.18
2022-09-07T10:42:26.673Z,27.11
2022-09-07T10:45:05.614Z,27.04
2022-09-07T10:47:50.795Z,27.09
2022-09-07T10:50:39.988Z,27.17
2022-09-07T10:53:40.145Z,27.11
2022-09-07T10:56:24.744Z,27.34
2022-09-07T10:59:05.019Z,27.38
2022-09-07T11:01:42.445Z,27.45
2022-09-07T11:04:17.639Z,27.57
2022-09-07T11:06:48.386Z,27.70
2022-09-07T11:09:36.765Z,27.85
2022-09-07T11:12:14.765Z,28.01
2022-09-07T11:14:48.290Z,28.08
2022-09-07T11:17:20.998Z,28.22
2022-09-07T11:19:52.788Z,28.32
2022-09-07T11:22:35.718Z,28.39
2022-09-07T11:28:01.086Z,28.56
2022-09-07T11:30:31.403Z,28.52
2022-09-07T11:33:00.098Z,28.76
2022-09-07T11:35:51.779Z,28.75
2022-09-07T11:38:47.634Z,28.96
2022-09-07T11:41:36.840Z,29.08
2022-09-07T11:44:13.565Z,29.17
2022-09-07T11:46:44.509Z,29.26
2022-09-07T11:49:22.915Z,29.37
2022-09-07T11:52:06.919Z,29.47
2022-09-07T11:55:01.475Z,29.40
2022-09-07T11:57:31.422Z,29.60
2022-09-07T12:00:20.804Z,29.71
2022-09-07T12:02:59.912Z,29.81
2022-09-07T12:05:33.323Z,29.90
2022-09-07T12:08:05.961Z,30.00
2022-09-07T12:10:54.164Z,30.10
2022-09-07T12:13:39.347Z,30.19
2022-09-07T12:16:18.535Z,30.27
2022-09-07T12:19:19.807Z,30.19
2022-09-07T12:21:52.876Z,30.42
2022-09-07T12:24:34.788Z,30.50
2022-09-07T12:27:03.077Z,30.55
2022-09-07T12:29:30.190Z,30.63
2022-09-07T12:32:00.685Z,30.67
2022-09-07T12:34:35.471Z,30.77
2022-09-07T12:37:27.164Z,30.84
2022-09-07T12:40:39.241Z,30.92
2022-09-07T12:43:15.179Z,30.99
2022-09-07T12:45:44.957Z,31.04
2022-09-07T12:48:17.835Z,31.13
2022-09-07T12:51:07.738Z,31.19
2022-09-07T12:54:02.451Z,31.00
2022-09-07T12:59:46.944Z,31.39
2022-09-07T13:02:44.108Z,31.47
2022-09-07T13:05:39.042Z,31.54
2022-09-07T13:08:20.957Z,31.59
2022-09-07T13:10:48.019Z,31.64
2022-09-07T13:13:14.929Z,31.70
2022-09-07T13:15:45.246Z,31.76
2022-09-07T13:18:35.268Z,31.83
2022-09-07T13:21:08.045Z,31.87
2022-09-07T13:23:43.098Z,31.83
2022-09-07T13:26:11.934Z,31.68
2022-09-07T13:28:56.207Z,31.27
2022-09-07T13:31:25.025Z,30.98
2022-09-07T13:33:53.700Z,31.03
2022-09-07T13:36:39.097Z,31.01
2022-09-07T13:39:13.070Z,31.16
2022-09-07T13:41:51.319Z,31.30
2022-09-07T13:44:25.888Z,31.38
2022-09-07T13:47:21.152Z,31.48
2022-09-07T13:50:26.836Z,31.57
2022-09-07T13:53:05.891Z,31.62
2022-09-07T13:55:46.402Z,31.70
2022-09-07T13:58:22.244Z,31.76
2022-09-07T14:00:53.457Z,31.83
2022-09-07T14:03:20.458Z,31.76
2022-09-07T14:05:47.518Z,31.96
2022-09-07T14:08:27.586Z,32.03
2022-09-07T14:10:54.452Z,32.07
2022-09-07T14:13:21.333Z,32.11
2022-09-07T14:15:49.215Z,32.15
2022-09-07T14:18:27.383Z,32.24
2022-09-07T14:20:54.293Z,32.28
2022-09-07T14:23:21.105Z,32.32
2022-09-07T14:28:38.275Z,32.43
2022-09-07T14:31:06.070Z,32.46
2022-09-07T14:33:33.078Z,32.51
2022-09-07T14:36:00.115Z,32.56
2022-09-07T14:41:20.529Z,32.65
2022-09-07T14:43:54.985Z,32.71
2022-09-07T14:46:25.325Z,32.75
2022-09-07T14:48:55.254Z,32.64
2022-09-07T14:51:35.173Z,32.85
2022-09-07T14:54:04.531Z,32.88
2022-09-07T14:56:39.235Z,32.90
2022-09-07T14:59:33.114Z,32.97
2022-09-07T15:02:18.492Z,33.01
2022-09-07T15:04:46.258Z,33.02
2022-09-07T15:07:37.888Z,33.08
2022-09-07T15:10:23.549Z,33.13
2022-09-07T15:12:55.156Z,33.12
2022-09-07T15:15:27.335Z,33.18
2022-09-07T15:17:55.672Z,33.22
2022-09-07T15:20:35.458Z,33.28
2022-09-07T15:23:08.494Z,33.28
2022-09-07T15:25:35.454Z,33.32
2022-09-07T15:28:02.544Z,33.22
2022-09-07T15:30:29.439Z,33.37
2022-09-07T15:32:57.382Z,33.39
2022-09-07T15:35:24.745Z,33.41
2022-09-07T15:38:59.375Z,33.43
2022-09-07T15:41:20.583Z,33.39
2022-09-07T15:43:41.269Z,33.45
2022-09-07T15:46:08.937Z,33.47
2022-09-07T15:48:36.328Z,33.49
2022-09-07T15:52:04.772Z,33.51
2022-09-07T15:56:42.333Z,33.51
2022-09-07T15:59:09.618Z,33.50
2022-09-07T16:01:52.506Z,33.50
2022-09-07T16:04:20.582Z,33.47
2022-09-07T16:06:48.360Z,33.45
2022-09-07T16:09:15.554Z,33.47
2022-09-07T16:11:42.476Z,33.47
2022-09-07T16:14:12.374Z,33.46
2022-09-07T16:19:26.117Z,33.43
2022-09-07T16:21:57.164Z,33.41
2022-09-07T16:24:24.559Z,33.40
2022-09-07T16:26:51.496Z,33.38
2022-09-07T16:29:18.320Z,33.36
2022-09-07T16:34:32.131Z,33.32
2022-09-07T16:36:58.941Z,33.30
2022-09-07T16:39:25.974Z,33.29
2022-09-07T16:41:52.987Z,33.26
2022-09-07T16:44:19.839Z,33.24
2022-09-07T16:46:46.669Z,33.20
2022-09-07T16:49:13.536Z,33.21
2022-09-07T16:51:40.363Z,33.18
2022-09-07T16:54:07.234Z,33.15
2022-09-07T16:56:38.805Z,33.12
2022-09-07T16:59:06.311Z,33.08
2022-09-07T17:01:34.898Z,33.01
2022-09-07T17:04:04.502Z,33.02
2022-09-07T17:06:35.098Z,32.98
2022-09-07T17:09:02.127Z,32.80
2022-09-07T17:11:33.157Z,32.92
2022-09-07T17:14:00.619Z,32.88
2022-09-07T17:16:29.734Z,32.82
2022-09-07T17:21:46.203Z,32.73
2022-09-07T17:24:13.281Z,32.69
2022-09-07T17:26:42.189Z,32.50
2022-09-07T17:29:09.739Z,32.58
2022-09-07T17:34:24.138Z,32.49
2022-09-07T17:36:51.556Z,32.44
2022-09-07T17:39:19.518Z,32.40
2022-09-07T17:41:53.099Z,32.36
2022-09-07T17:44:21.482Z,32.32
2022-09-07T17:46:48.343Z,32.27
2022-09-07T17:49:16.793Z,32.22
2022-09-07T17:51:44.355Z,32.16
2022-09-07T17:54:13.071Z,32.13
2022-09-07T17:56:40.547Z,32.08
2022-09-07T18:01:54.922Z,31.95
2022-09-07T18:04:22.732Z,31.91
2022-09-07T18:06:49.724Z,31.85
2022-09-07T18:09:19.725Z,31.79
2022-09-07T18:11:48.759Z,31.75
2022-09-07T18:14:16.572Z,31.69
2022-09-07T18:16:44.069Z,31.46
2022-09-07T18:19:11.344Z,31.59
2022-09-07T18:21:39.330Z,31.36
2022-09-07T18:24:11.770Z,31.34
2022-09-07T18:26:40.116Z,31.40
2022-09-07T18:29:18.965Z,31.37
2022-09-07T18:31:54.220Z,31.30
2022-09-07T18:34:21.161Z,31.24
2022-09-07T18:36:48.186Z,31.18
2022-09-07T18:39:15.206Z,31.14
2022-09-07T18:41:42.312Z,31.11
2022-09-07T18:46:56.275Z,30.99
2022-09-07T18:49:23.574Z,30.93
2022-09-07T18:54:38.720Z,30.82
2022-09-07T18:57:06.918Z,30.77
2022-09-07T18:59:34.104Z,30.72
2022-09-07T19:02:04.511Z,30.65
2022-09-07T19:07:27.385Z,30.56
2022-09-07T19:09:56.554Z,30.51
2022-09-07T19:12:24.286Z,30.46
2022-09-07T19:14:51.348Z,30.42
2022-09-07T19:17:18.250Z,30.37
2022-09-07T19:19:45.123Z,30.33
2022-09-07T19:22:12.168Z,30.27
2022-09-07T19:24:39.025Z,30.07
2022-09-07T19:27:07.278Z,30.16
2022-09-07T19:29:34.170Z,30.10
2022-09-07T19:32:07.801Z,30.09
2022-09-07T19:34:36.535Z,30.04
2022-09-07T19:37:04.118Z,30.01
2022-09-07T19:39:31.944Z,29.95
2022-09-07T19:41:59.002Z,29.89
2022-09-07T19:44:25.903Z,29.85
2022-09-07T19:46:52.844Z,29.81
2022-09-07T19:49:19.825Z,29.77
2022-09-07T19:51:49.366Z,29.73
2022-09-07T19:54:16.240Z,29.69
2022-09-07T19:56:43.377Z,29.64
2022-09-07T19:59:10.484Z,29.60
2022-09-07T20:01:38.589Z,29.54
2022-09-07T20:04:07.315Z,29.49
2022-09-07T20:06:34.593Z,29.44
2022-09-07T20:09:01.451Z,29.39
2022-09-07T20:11:31.222Z,29.21
2022-09-07T20:13:58.117Z,29.30
2022-09-07T20:16:25.289Z,29.23
2022-09-07T20:18:52.316Z,29.18
2022-09-07T20:21:21.146Z,29.13
2022-09-07T20:23:48.064Z,29.08
2022-09-07T20:26:16.601Z,29.02
2022-09-07T20:28:43.534Z,28.95
2022-09-07T20:31:12.050Z,28.91
2022-09-07T20:33:39.308Z,28.87
2022-09-07T20:36:07.426Z,28.78
2022-09-07T20:38:44.034Z,28.76
2022-09-07T20:41:16.805Z,28.71
2022-09-07T20:43:43.636Z,28.64
2022-09-07T20:46:10.507Z,28.62
2022-09-07T20:48:37.834Z,28.57
2022-09-07T20:51:06.609Z,28.52
2022-09-07T20:53:33.598Z,28.47
2022-09-07T20:56:02.099Z,28.34
2022-09-07T20:58:29.584Z,28.40
2022-09-07T21:00:56.516Z,28.35
2022-09-07T21:03:23.454Z,28.16
2022-09-07T21:05:50.351Z,28.27
2022-09-07T21:08:17.343Z,28.20
2022-09-07T21:10:45.425Z,28.17
2022-09-07T21:13:12.481Z,28.11
2022-09-07T21:15:40.409Z,28.06
2022-09-07T21:18:08.587Z,28.00
2022-09-07T21:20:35.434Z,27.95
2022-09-07T21:23:02.278Z,27.74
2022-09-07T21:25:29.088Z,27.84
2022-09-07T21:27:56.977Z,27.79
2022-09-07T21:30:23.815Z,27.75
2022-09-07T21:32:51.477Z,27.54
2022-09-07T21:35:19.066Z,27.46
2022-09-07T21:37:46.038Z,27.62
2022-09-07T21:40:13.006Z,27.58
2022-09-07T21:42:39.982Z,27.54
2022-09-07T21:45:07.765Z,27.48
2022-09-07T21:47:34.612Z,27.46
2022-09-07T21:50:01.469Z,27.40
2022-09-07T21:52:28.330Z,27.37
2022-09-07T21:54:55.422Z,27.35
2022-09-07T21:57:23.013Z,27.29
2022-09-07T21:59:49.858Z,27.26
2022-09-07T22:02:16.791Z,27.21
2022-09-07T22:04:43.677Z,27.19
2022-09-07T22:07:10.564Z,27.14
2022-09-07T22:09:37.378Z,27.11
2022-09-07T22:12:04.374Z,27.07
2022-09-07T22:14:31.443Z,27.00
2022-09-07T22:16:58.282Z,26.95
2022-09-07T22:19:25.136Z,26.92
2022-09-07T22:21:52.003Z,26.84
2022-09-07T22:24:18.812Z,26.82
2022-09-07T22:26:46.420Z,26.77
2022-09-07T22:29:13.427Z,26.70
2022-09-07T22:31:41.039Z,26.65
2022-09-07T22:34:08.567Z,26.60
2022-09-07T22:36:37.456Z,26.54
2022-09-07T22:39:05.751Z,26.52
2022-09-07T22:41:33.897Z,26.49
2022-09-07T22:44:00.962Z,26.46
2022-09-07T22:46:28.974Z,26.43
2022-09-07T22:48:56.990Z,26.41
2022-09-07T22:51:26.175Z,26.37
2022-09-07T22:53:53.216Z,26.16
2022-09-07T22:56:23.099Z,26.30
2022-09-07T22:58:51.787Z,26.14
2022-09-07T23:01:18.759Z,26.22
2022-09-07T23:03:45.800Z,26.19
2022-09-07T23:06:29.509Z,26.01
2022-09-07T23:08:57.166Z,26.10
2022-09-07T23:11:24.645Z,25.90
2022-09-07T23:13:55.560Z,26.00
2022-09-07T23:16:22.660Z,25.94
2022-09-07T23:18:49.603Z,25.90
2022-09-07T23:21:16.468Z,25.86
2022-09-07T23:23:43.426Z,25.79
2022-09-07T23:26:10.310Z,25.75
2022-09-07T23:28:37.129Z,25.70
2022-09-07T23:31:04.100Z,25.67
2022-09-07T23:33:31.165Z,25.63
2022-09-07T23:36:05.078Z,25.60
2022-09-07T23:38:32.458Z,25.56
2022-09-07T23:40:59.539Z,25.27
2022-09-07T23:43:30.181Z,25.52
2022-09-07T23:45:57.742Z,25.49
2022-09-07T23:48:24.624Z,25.45
2022-09-07T23:50:51.514Z,25.44
2022-09-07T23:53:18.611Z,25.40
2022-09-07T23:55:46.610Z,25.37
2022-09-07T23:58:13.504Z,25.05
